Time;durP1;ratioP1;P1;durP2;ratioP2;P2;SDS_P1;SDS_P2;PMS_P1;PMS_P2;Temp;Humidity;BMP_temperature;BMP_pressure;BME280_temperature;BME280_humidity;BME280_pressure;Samples;Min_cycle;Max_cycle;Signal;HPM_P1;HPM_P2
2021/12/09 00:01:32;;;;;;;5.50;4.90;;;;;;;;;;5013955;28;20554;-79
2021/12/09 00:04:05;;;;;;;6.93;5.40;;;;;;;;;;5019827;28;20412;-81
2021/12/09 00:06:34;;;;;;;5.43;4.75;;;;;;;;;;5020295;28;20411;-79
2021/12/09 00:09:04;;;;;;;6.15;5.47;;;;;;;;;;5020031;28;21035;-81
2021/12/09 00:11:34;;;;;;;6.13;5.35;;;;;;;;;;5012666;28;20810;-80
2021/12/09 00:14:01;;;;;;;5.97;5.20;;;;;;;;;;5006914;28;20422;-81
2021/12/09 00:16:28;;;;;;;7.25;5.78;;;;;;;;;;5007067;28;20474;-80
2021/12/09 00:18:55;;;;;;;6.70;5.90;;;;;;;;;;5006617;28;20471;-81
2021/12/09 00:21:23;;;;;;;7.95;6.45;;;;;;;;;;5011374;28;20427;-81
2021/12/09 00:23:50;;;;;;;7.63;6.63;;;;;;;;;;5008979;28;20408;-81
2021/12/09 00:26:17;;;;;;;8.43;6.40;;;;;;;;;;5010028;28;20438;-81
2021/12/09 00:28:44;;;;;;;7.40;6.25;;;;;;;;;;5010629;28;20425;-81
2021/12/09 00:31:11;;;;;;;7.82;6.28;;;;;;;;;;5008840;28;20414;-81
2021/12/09 00:33:43;;;;;;;7.38;6.32;;;;;;;;;;5016028;28;20838;-81
2021/12/09 00:36:10;;;;;;;7.30;6.60;;;;;;;;;;5018569;28;20425;-81
2021/12/09 00:38:40;;;;;;;7.95;6.40;;;;;;;;;;5010184;28;20489;-81
2021/12/09 00:41:10;;;;;;;6.88;6.18;;;;;;;;;;5009807;28;20496;-81
2021/12/09 00:43:37;;;;;;;7.45;6.53;;;;;;;;;;5010120;28;20397;-81
2021/12/09 00:46:05;;;;;;;8.07;6.85;;;;;;;;;;5009744;28;20405;-81
2021/12/09 00:48:33;;;;;;;8.63;6.77;;;;;;;;;;5009752;28;20493;-81
2021/12/09 00:51:01;;;;;;;7.63;6.82;;;;;;;;;;5009062;28;20410;-81
2021/12/09 00:53:28;;;;;;;8.60;6.60;;;;;;;;;;5009833;28;20465;-80
2021/12/09 00:55:56;;;;;;;7.07;6.22;;;;;;;;;;5009523;28;20484;-80
2021/12/09 00:58:23;;;;;;;8.23;6.90;;;;;;;;;;5009458;28;20757;-79
2021/12/09 01:00:51;;;;;;;7.10;6.35;;;;;;;;;;5009620;28;20399;-80
2021/12/09 01:03:18;;;;;;;7.67;6.87;;;;;;;;;;5008893;28;20402;-80
2021/12/09 01:05:45;;;;;;;8.50;6.60;;;;;;;;;;5009233;28;20553;-80
2021/12/09 01:08:13;;;;;;;9.95;6.72;;;;;;;;;;5015541;28;20404;-80
2021/12/09 01:10:40;;;;;;;7.43;6.50;;;;;;;;;;5011366;28;20494;-80
2021/12/09 01:13:10;;;;;;;7.60;6.30;;;;;;;;;;5007169;28;21813;-80
2021/12/09 01:15:38;;;;;;;7.65;5.88;;;;;;;;;;5008379;28;20434;-80
2021/12/09 01:18:05;;;;;;;6.38;5.40;;;;;;;;;;5007817;28;21172;-80
2021/12/09 01:20:32;;;;;;;6.20;5.60;;;;;;;;;;5008122;28;20429;-80
2021/12/09 01:23:01;;;;;;;6.60;5.55;;;;;;;;;;5017052;28;20415;-79
2021/12/09 01:25:32;;;;;;;6.35;5.30;;;;;;;;;;5019684;28;20482;-80
2021/12/09 01:27:59;;;;;;;6.25;5.40;;;;;;;;;;5008389;28;20474;-80
2021/12/09 01:30:27;;;;;;;6.07;5.45;;;;;;;;;;5011639;28;20902;-80
2021/12/09 01:32:55;;;;;;;6.10;5.50;;;;;;;;;;5021017;28;20413;-80
2021/12/09 01:35:26;;;;;;;5.82;5.18;;;;;;;;;;5033673;28;20421;-80
2021/12/09 01:37:56;;;;;;;6.97;5.70;;;;;;;;;;5034684;28;20428;-79
2021/12/09 01:40:25;;;;;;;6.63;5.35;;;;;;;;;;5034663;28;20932;-81
2021/12/09 01:42:52;;;;;;;6.90;5.60;;;;;;;;;;5030917;28;20424;-81
2021/12/09 01:45:19;;;;;;;6.25;5.03;;;;;;;;;;5027080;28;20474;-80
2021/12/09 01:47:47;;;;;;;6.35;5.30;;;;;;;;;;5024664;28;20391;-79
2021/12/09 01:50:15;;;;;;;6.57;5.40;;;;;;;;;;5024871;28;20662;-80
2021/12/09 01:52:42;;;;;;;6.23;5.13;;;;;;;;;;5017266;28;20454;-80
2021/12/09 01:55:10;;;;;;;5.90;5.30;;;;;;;;;;5006701;28;20423;-80
2021/12/09 01:57:37;;;;;;;6.10;5.47;;;;;;;;;;5006953;28;20413;-81
2021/12/09 02:00:07;;;;;;;6.63;5.60;;;;;;;;;;5020722;28;20402;-80
2021/12/09 02:02:34;;;;;;;5.65;5.00;;;;;;;;;;5025325;28;20432;-81
2021/12/09 02:05:03;;;;;;;6.18;5.30;;;;;;;;;;5025481;28;20395;-80
2021/12/09 02:07:30;;;;;;;5.30;4.80;;;;;;;;;;5030987;28;20401;-80
2021/12/09 02:09:56;;;;;;;6.15;5.50;;;;;;;;;;5025390;28;21062;-80
2021/12/09 02:12:23;;;;;;;5.47;4.80;;;;;;;;;;5024954;28;20406;-80
2021/12/09 02:14:52;;;;;;;5.38;4.68;;;;;;;;;;5021209;28;20413;-80
2021/12/09 02:17:19;;;;;;;5.25;4.75;;;;;;;;;;5009120;28;20407;-80
2021/12/09 02:19:48;;;;;;;6.13;4.80;;;;;;;;;;5009501;28;20898;-80
2021/12/09 02:22:16;;;;;;;6.00;4.90;;;;;;;;;;5021067;28;20402;-80
2021/12/09 02:24:43;;;;;;;5.97;5.20;;;;;;;;;;5017118;28;20397;-80
2021/12/09 02:27:10;;;;;;;5.10;4.60;;;;;;;;;;5024628;28;20404;-81
2021/12/09 02:29:39;;;;;;;6.28;5.50;;;;;;;;;;5016457;28;20415;-80
2021/12/09 02:32:06;;;;;;;6.03;5.30;;;;;;;;;;5005470;28;20426;-80
2021/12/09 02:34:34;;;;;;;5.43;4.93;;;;;;;;;;5019299;28;20877;-80
2021/12/09 02:37:01;;;;;;;6.72;5.55;;;;;;;;;;5024699;28;20960;-80
2021/12/09 02:39:29;;;;;;;6.03;5.28;;;;;;;;;;5024532;28;20405;-80
2021/12/09 02:41:56;;;;;;;6.93;5.10;;;;;;;;;;5024826;28;20406;-80
2021/12/09 02:44:24;;;;;;;5.75;4.80;;;;;;;;;;5024011;28;20441;-80
2021/12/09 02:46:53;;;;;;;6.28;5.18;;;;;;;;;;5024219;28;20409;-80
2021/12/09 02:49:23;;;;;;;5.60;4.90;;;;;;;;;;5023487;28;20500;-80
2021/12/09 02:51:53;;;;;;;5.65;4.97;;;;;;;;;;5016492;28;20486;-81
2021/12/09 02:54:21;;;;;;;5.65;5.05;;;;;;;;;;5006274;28;20423;-81
2021/12/09 02:56:52;;;;;;;5.60;5.00;;;;;;;;;;5005384;28;20431;-80
2021/12/09 02:59:20;;;;;;;5.45;4.95;;;;;;;;;;5006264;28;20403;-81
2021/12/09 03:01:57;;;;;;;6.00;5.00;;;;;;;;;;5017328;28;20497;-81
2021/12/09 03:04:25;;;;;;;5.75;5.07;;;;;;;;;;5013774;28;20906;-80
2021/12/09 03:06:54;;;;;;;5.90;5.30;;;;;;;;;;5016285;28;20408;-80
2021/12/09 03:09:22;;;;;;;6.15;5.55;;;;;;;;;;5013385;28;20453;-80
2021/12/09 03:11:55;;;;;;;6.57;5.38;;;;;;;;;;5017306;28;20411;-80
2021/12/09 03:14:23;;;;;;;5.97;5.18;;;;;;;;;;5016132;28;20952;-80
2021/12/09 03:16:50;;;;;;;7.13;5.75;;;;;;;;;;5013735;28;20434;-80
2021/12/09 03:19:17;;;;;;;6.20;5.53;;;;;;;;;;5016302;28;20414;-80
2021/12/09 03:21:46;;;;;;;7.13;6.10;;;;;;;;;;5013679;28;20906;-80
2021/12/09 03:24:15;;;;;;;5.93;5.30;;;;;;;;;;5013009;28;20415;-80
2021/12/09 03:26:46;;;;;;;6.63;5.90;;;;;;;;;;5016929;28;20410;-80
2021/12/09 03:29:16;;;;;;;7.03;5.93;;;;;;;;;;5009383;28;20418;-80
2021/12/09 03:31:45;;;;;;;7.43;6.10;;;;;;;;;;5011691;28;20489;-80
2021/12/09 03:34:14;;;;;;;7.95;7.07;;;;;;;;;;5015003;28;20405;-80
2021/12/09 03:36:41;;;;;;;9.32;7.53;;;;;;;;;;5013156;28;20423;-80
2021/12/09 03:39:13;;;;;;;9.90;7.90;;;;;;;;;;5015102;28;20405;-78
2021/12/09 03:41:41;;;;;;;9.20;7.40;;;;;;;;;;5013061;28;20411;-79
2021/12/09 03:44:08;;;;;;;10.02;8.15;;;;;;;;;;5015496;28;20409;-77
2021/12/09 03:46:36;;;;;;;10.43;8.40;;;;;;;;;;5013287;28;20492;-80
2021/12/09 03:49:05;;;;;;;12.15;8.48;;;;;;;;;;5014622;28;20407;-80
2021/12/09 03:51:31;;;;;;;10.30;7.83;;;;;;;;;;5013904;28;20952;-79
2021/12/09 03:53:59;;;;;;;10.10;8.00;;;;;;;;;;5013879;28;20402;-79
2021/12/09 03:56:25;;;;;;;11.05;7.85;;;;;;;;;;5014433;28;20425;-81
2021/12/09 03:58:52;;;;;;;9.27;7.75;;;;;;;;;;5012927;28;20403;-81
2021/12/09 04:01:19;;;;;;;9.63;7.60;;;;;;;;;;5015412;28;21264;-80
2021/12/09 04:03:49;;;;;;;8.73;7.25;;;;;;;;;;5012329;28;20407;-81
2021/12/09 04:06:16;;;;;;;9.95;7.60;;;;;;;;;;5011906;28;20407;-81
2021/12/09 04:08:43;;;;;;;9.13;7.55;;;;;;;;;;5011590;28;20871;-81
2021/12/09 04:11:11;;;;;;;9.50;7.72;;;;;;;;;;5014994;28;20463;-81
2021/12/09 04:13:38;;;;;;;9.90;7.90;;;;;;;;;;5012859;28;20439;-81
2021/12/09 04:16:07;;;;;;;10.30;7.80;;;;;;;;;;5014024;28;20510;-81
2021/12/09 04:18:34;;;;;;;9.45;8.07;;;;;;;;;;5013382;28;20397;-81
2021/12/09 04:21:03;;;;;;;9.45;8.07;;;;;;;;;;5013800;28;20410;-81
2021/12/09 04:23:31;;;;;;;9.43;7.78;;;;;;;;;;5019458;28;20413;-80
2021/12/09 04:25:58;;;;;;;10.98;8.95;;;;;;;;;;5013970;28;20424;-81
2021/12/09 04:28:25;;;;;;;11.48;8.93;;;;;;;;;;5013236;28;20399;-81
2021/12/09 04:30:52;;;;;;;13.43;9.45;;;;;;;;;;5015116;28;20404;-81
2021/12/09 04:33:19;;;;;;;13.65;10.88;;;;;;;;;;5011438;28;20414;-81
2021/12/09 04:35:46;;;;;;;12.50;9.93;;;;;;;;;;5015524;28;20813;-81
2021/12/09 04:38:14;;;;;;;12.77;10.05;;;;;;;;;;5011714;28;20410;-81
2021/12/09 04:40:41;;;;;;;14.32;10.60;;;;;;;;;;5015282;28;20413;-81
2021/12/09 04:43:08;;;;;;;15.97;12.47;;;;;;;;;;5012479;28;20406;-81
2021/12/09 04:45:38;;;;;;;14.65;11.65;;;;;;;;;;5014575;28;20403;-81
2021/12/09 04:48:06;;;;;;;15.57;12.00;;;;;;;;;;5013180;28;20417;-81
2021/12/09 04:50:34;;;;;;;15.77;12.27;;;;;;;;;;5014297;28;20407;-81
2021/12/09 04:53:01;;;;;;;21.47;14.40;;;;;;;;;;5012482;28;20548;-81
2021/12/09 04:55:29;;;;;;;21.20;14.90;;;;;;;;;;5016067;28;20412;-81
2021/12/09 04:57:56;;;;;;;26.13;17.98;;;;;;;;;;5013059;28;20403;-80
2021/12/09 05:00:26;;;;;;;28.70;19.00;;;;;;;;;;5016044;28;21175;-81
2021/12/09 05:03:04;;;;;;;28.90;19.20;;;;;;;;;;5012508;28;20407;-81
2021/12/09 05:05:35;;;;;;;26.25;18.55;;;;;;;;;;5019490;28;20409;-81
2021/12/09 05:08:05;;;;;;;25.30;18.38;;;;;;;;;;5014287;28;20488;-80
2021/12/09 05:10:36;;;;;;;25.88;18.23;;;;;;;;;;5018997;28;20405;-80
2021/12/09 05:13:04;;;;;;;25.52;17.77;;;;;;;;;;5016059;28;20950;-81
2021/12/09 05:15:32;;;;;;;25.95;18.38;;;;;;;;;;5016024;28;20412;-81
2021/12/09 05:17:59;;;;;;;25.95;17.98;;;;;;;;;;5016322;28;20401;-80
2021/12/09 05:20:26;;;;;;;26.38;18.95;;;;;;;;;;5019014;28;20406;-80
2021/12/09 05:22:53;;;;;;;25.42;18.23;;;;;;;;;;5013428;28;20403;-79
2021/12/09 05:25:19;;;;;;;28.73;19.80;;;;;;;;;;5009083;28;20429;-80
2021/12/09 05:27:49;;;;;;;28.67;20.30;;;;;;;;;;5009337;28;20403;-80
2021/12/09 05:30:23;;;;;;;30.83;21.77;;;;;;;;;;5019104;28;20461;-81
2021/12/09 05:32:49;;;;;;;30.38;21.52;;;;;;;;;;5019782;28;20471;-80
2021/12/09 05:35:16;;;;;;;30.65;21.45;;;;;;;;;;5018575;28;20756;-80
2021/12/09 05:37:44;;;;;;;33.60;23.17;;;;;;;;;;5019928;28;20783;-80
2021/12/09 05:40:12;;;;;;;30.00;20.87;;;;;;;;;;5020086;28;20452;-81
2021/12/09 05:42:39;;;;;;;30.40;21.58;;;;;;;;;;5020243;28;20879;-81
2021/12/09 05:45:09;;;;;;;30.73;21.88;;;;;;;;;;5020154;28;20909;-81
2021/12/09 05:47:36;;;;;;;32.55;21.25;;;;;;;;;;5012660;28;20415;-81
2021/12/09 05:50:03;;;;;;;28.27;20.70;;;;;;;;;;5010117;28;20410;-81
2021/12/09 05:52:30;;;;;;;25.73;19.05;;;;;;;;;;5012090;28;20396;-81
2021/12/09 05:54:57;;;;;;;25.83;19.87;;;;;;;;;;5018149;28;20430;-81
2021/12/09 05:57:24;;;;;;;24.15;17.83;;;;;;;;;;5009762;28;20477;-80
2021/12/09 05:59:53;;;;;;;24.83;18.48;;;;;;;;;;5009728;28;20418;-80
2021/12/09 06:02:21;;;;;;;23.27;17.75;;;;;;;;;;5010358;28;20430;-80
2021/12/09 06:04:48;;;;;;;27.38;19.55;;;;;;;;;;5009701;28;20449;-80
2021/12/09 06:07:16;;;;;;;24.27;18.20;;;;;;;;;;5010505;28;20405;-81
2021/12/09 06:09:43;;;;;;;24.90;17.67;;;;;;;;;;5011029;28;21167;-80
2021/12/09 06:12:10;;;;;;;22.40;16.92;;;;;;;;;;5014105;28;20403;-81
2021/12/09 06:14:37;;;;;;;21.67;16.92;;;;;;;;;;5014155;28;20403;-80
2021/12/09 06:17:04;;;;;;;22.00;16.30;;;;;;;;;;5010899;28;20872;-81
2021/12/09 06:19:32;;;;;;;19.67;15.45;;;;;;;;;;5018661;28;20410;-81
2021/12/09 06:21:59;;;;;;;18.63;14.40;;;;;;;;;;5019676;28;20405;-81
2021/12/09 06:24:26;;;;;;;17.05;13.63;;;;;;;;;;5021550;28;20405;-81
2021/12/09 06:26:53;;;;;;;16.92;13.48;;;;;;;;;;5020803;28;20402;-81
2021/12/09 06:29:20;;;;;;;17.73;14.20;;;;;;;;;;5023580;28;20536;-81
2021/12/09 06:31:47;;;;;;;15.73;12.35;;;;;;;;;;5020078;28;20425;-82
2021/12/09 06:34:13;;;;;;;15.80;12.68;;;;;;;;;;5023115;28;20416;-81
2021/12/09 06:36:43;;;;;;;15.63;12.85;;;;;;;;;;5022931;28;20561;-81
2021/12/09 06:39:09;;;;;;;15.55;12.40;;;;;;;;;;5021415;28;20409;-81
2021/12/09 06:41:36;;;;;;;13.80;11.38;;;;;;;;;;5019828;28;20413;-81
2021/12/09 06:44:03;;;;;;;14.05;11.50;;;;;;;;;;5018817;28;20393;-81
2021/12/09 06:46:30;;;;;;;13.75;11.30;;;;;;;;;;5013981;28;20439;-81
2021/12/09 06:48:57;;;;;;;16.60;11.50;;;;;;;;;;5014798;28;20428;-81
2021/12/09 06:51:24;;;;;;;11.63;10.20;;;;;;;;;;5013816;28;20504;-82
2021/12/09 06:53:53;;;;;;;13.63;10.73;;;;;;;;;;5008924;28;20430;-81
2021/12/09 06:56:20;;;;;;;12.85;10.88;;;;;;;;;;5014365;28;20417;-82
2021/12/09 06:58:47;;;;;;;13.98;11.32;;;;;;;;;;5017989;28;20889;-82
2021/12/09 07:01:14;;;;;;;12.90;11.00;;;;;;;;;;5017032;28;20403;-81
2021/12/09 07:03:41;;;;;;;13.55;11.52;;;;;;;;;;5017636;28;20403;-83
2021/12/09 07:06:11;;;;;;;14.05;11.30;;;;;;;;;;5016110;28;20405;-82
2021/12/09 07:08:45;;;;;;;14.90;11.30;;;;;;;;;;5017946;28;20455;-80
2021/12/09 07:11:13;;;;;;;15.98;11.40;;;;;;;;;;5014442;28;20402;-81
2021/12/09 07:13:40;;;;;;;15.48;12.20;;;;;;;;;;5012127;28;20947;-80
2021/12/09 07:16:07;;;;;;;15.10;11.85;;;;;;;;;;5016516;28;20401;-80
2021/12/09 07:18:34;;;;;;;13.05;11.20;;;;;;;;;;5013204;28;20403;-82
2021/12/09 07:21:01;;;;;;;13.05;10.93;;;;;;;;;;5010465;28;20407;-82
2021/12/09 07:23:28;;;;;;;12.00;10.27;;;;;;;;;;5016718;28;20881;-81
2021/12/09 07:25:55;;;;;;;13.30;10.27;;;;;;;;;;5009513;28;20408;-81
2021/12/09 07:28:23;;;;;;;11.98;10.27;;;;;;;;;;5016554;28;20808;-81
2021/12/09 07:30:50;;;;;;;13.93;10.85;;;;;;;;;;5013900;28;20884;-81
2021/12/09 07:33:17;;;;;;;12.38;10.18;;;;;;;;;;5013864;28;20956;-79
2021/12/09 07:35:44;;;;;;;11.80;10.10;;;;;;;;;;5011356;28;20697;-78
2021/12/09 07:38:11;;;;;;;12.55;10.50;;;;;;;;;;5015276;28;20433;-79
2021/12/09 07:40:39;;;;;;;13.00;9.98;;;;;;;;;;5016020;28;20981;-79
2021/12/09 07:43:06;;;;;;;12.27;9.82;;;;;;;;;;5007109;28;20407;-81
2021/12/09 07:45:35;;;;;;;13.13;10.60;;;;;;;;;;5014213;28;20467;-81
2021/12/09 07:48:02;;;;;;;13.57;10.50;;;;;;;;;;5013879;28;20451;-81
2021/12/09 07:50:31;;;;;;;14.18;11.10;;;;;;;;;;5015734;28;20397;-80
2021/12/09 07:53:00;;;;;;;14.00;11.35;;;;;;;;;;5015844;28;20403;-81
2021/12/09 07:55:27;;;;;;;13.52;10.85;;;;;;;;;;5011330;28;20863;-79
2021/12/09 07:57:54;;;;;;;15.38;12.57;;;;;;;;;;5009361;28;20419;-80
2021/12/09 08:00:26;;;;;;;14.75;11.85;;;;;;;;;;5015089;28;20405;-81
2021/12/09 08:02:55;;;;;;;14.93;12.25;;;;;;;;;;5011104;28;20516;-81
2021/12/09 08:05:23;;;;;;;16.60;13.20;;;;;;;;;;5012298;28;20401;-81
2021/12/09 08:07:50;;;;;;;21.38;15.02;;;;;;;;;;5009951;28;20536;-81
2021/12/09 08:10:19;;;;;;;20.33;15.00;;;;;;;;;;5016834;28;20410;-81
2021/12/09 08:12:46;;;;;;;20.50;15.65;;;;;;;;;;5017437;28;20961;-81
2021/12/09 08:15:16;;;;;;;20.48;16.00;;;;;;;;;;5014494;28;20504;-81
2021/12/09 08:18:00;;;;;;;19.75;15.90;;;;;;;;;;5015364;28;20537;-81
2021/12/09 08:20:29;;;;;;;20.48;16.35;;;;;;;;;;5014573;28;20408;-82
2021/12/09 08:22:56;;;;;;;18.47;14.07;;;;;;;;;;5008181;28;20536;-81
2021/12/09 08:25:24;;;;;;;17.65;13.45;;;;;;;;;;5006721;28;20419;-81
2021/12/09 08:27:51;;;;;;;15.35;13.20;;;;;;;;;;5009231;28;20410;-81
2021/12/09 08:30:22;;;;;;;16.33;13.02;;;;;;;;;;5019092;28;20409;-80
2021/12/09 08:32:50;;;;;;;15.45;12.77;;;;;;;;;;5023540;28;20432;-81
2021/12/09 08:35:16;;;;;;;17.52;15.02;;;;;;;;;;5022561;28;20397;-80
2021/12/09 08:37:46;;;;;;;19.15;15.75;;;;;;;;;;5019987;28;20468;-81
2021/12/09 08:40:15;;;;;;;24.53;19.23;;;;;;;;;;5025486;28;20472;-81
2021/12/09 08:42:43;;;;;;;19.17;14.82;;;;;;;;;;5024911;28;20425;-80
2021/12/09 08:45:11;;;;;;;19.52;16.30;;;;;;;;;;5030893;28;20723;-80
2021/12/09 08:47:39;;;;;;;22.05;17.90;;;;;;;;;;5016649;28;20407;-78
2021/12/09 08:50:08;;;;;;;22.63;18.27;;;;;;;;;;5008678;28;20446;-81
2021/12/09 08:52:35;;;;;;;17.27;14.48;;;;;;;;;;5009581;28;20411;-80
2021/12/09 08:55:05;;;;;;;20.25;15.95;;;;;;;;;;5011112;28;20403;-80
2021/12/09 08:57:33;;;;;;;26.25;19.25;;;;;;;;;;5012139;28;20433;-80
2021/12/09 09:00:00;;;;;;;22.23;17.30;;;;;;;;;;5016223;28;20415;-79
2021/12/09 09:02:27;;;;;;;22.75;17.45;;;;;;;;;;5014174;28;20409;-79
2021/12/09 09:04:55;;;;;;;46.60;33.38;;;;;;;;;;5013643;28;20891;-80
2021/12/09 09:07:22;;;;;;;19.17;14.95;;;;;;;;;;5013006;28;20417;-80
2021/12/09 09:09:49;;;;;;;40.60;32.47;;;;;;;;;;5012236;28;20881;-79
2021/12/09 09:12:18;;;;;;;54.10;43.42;;;;;;;;;;5012203;28;20405;-79
2021/12/09 09:14:45;;;;;;;30.50;24.13;;;;;;;;;;5015216;28;20405;-80
2021/12/09 09:17:12;;;;;;;37.43;29.43;;;;;;;;;;5017215;28;20788;-81
2021/12/09 09:19:39;;;;;;;23.88;19.13;;;;;;;;;;5017307;28;20418;-80
2021/12/09 09:22:06;;;;;;;48.92;34.25;;;;;;;;;;5019543;28;20412;-81
2021/12/09 09:24:33;;;;;;;19.13;15.43;;;;;;;;;;5019904;28;20500;-81
2021/12/09 09:27:00;;;;;;;17.67;13.80;;;;;;;;;;5018819;28;20496;-81
2021/12/09 09:29:32;;;;;;;18.70;13.98;;;;;;;;;;5020446;28;20408;-80
2021/12/09 09:31:59;;;;;;;20.17;16.63;;;;;;;;;;5012926;28;20415;-81
2021/12/09 09:34:25;;;;;;;19.55;15.75;;;;;;;;;;5013491;28;20411;-79
2021/12/09 09:36:52;;;;;;;21.45;18.38;;;;;;;;;;5013859;28;20397;-80
2021/12/09 09:39:21;;;;;;;22.63;18.75;;;;;;;;;;5012863;28;20424;-79
2021/12/09 09:41:57;;;;;;;19.38;15.95;;;;;;;;;;5015215;28;21200;-80
2021/12/09 09:44:29;;;;;;;17.58;14.75;;;;;;;;;;5018071;28;20607;-79
2021/12/09 09:47:00;;;;;;;17.98;13.77;;;;;;;;;;5020447;28;20413;-79
2021/12/09 09:49:28;;;;;;;18.10;15.05;;;;;;;;;;5011163;28;20410;-79
2021/12/09 09:51:57;;;;;;;15.68;12.32;;;;;;;;;;5019298;28;20406;-79
2021/12/09 09:54:26;;;;;;;12.90;10.50;;;;;;;;;;5024291;28;20488;-82
2021/12/09 09:56:53;;;;;;;15.17;11.57;;;;;;;;;;5023337;28;20419;-82
2021/12/09 09:59:20;;;;;;;15.38;11.95;;;;;;;;;;5017419;28;20455;-82
2021/12/09 10:01:52;;;;;;;13.70;11.60;;;;;;;;;;5017524;28;20408;-82
2021/12/09 10:04:31;;;;;;;12.80;10.70;;;;;;;;;;5014181;28;20409;-80
2021/12/09 10:06:58;;;;;;;8.93;7.25;;;;;;;;;;5016960;28;20408;-82
2021/12/09 10:09:25;;;;;;;8.80;7.50;;;;;;;;;;5018837;28;20409;-81
2021/12/09 10:11:54;;;;;;;9.68;8.05;;;;;;;;;;5023245;28;20424;-82
2021/12/09 10:14:22;;;;;;;8.75;7.80;;;;;;;;;;5019888;28;20435;-82
2021/12/09 10:17:02;;;;;;;6.65;5.40;;;;;;;;;;5022560;28;20397;-81
2021/12/09 10:19:32;;;;;;;7.05;5.00;;;;;;;;;;5023152;28;20397;-81
2021/12/09 10:22:11;;;;;;;6.35;4.82;;;;;;;;;;5020637;28;20409;-80
2021/12/09 10:24:40;;;;;;;6.25;4.78;;;;;;;;;;5021092;28;20397;-81
2021/12/09 10:27:08;;;;;;;5.10;4.03;;;;;;;;;;5021235;28;20416;-81
2021/12/09 10:29:39;;;;;;;3.80;3.40;;;;;;;;;;5022355;28;20409;-80
2021/12/09 10:32:10;;;;;;;4.07;3.58;;;;;;;;;;5021790;28;20424;-81
2021/12/09 10:34:40;;;;;;;5.90;4.32;;;;;;;;;;5021541;28;20405;-81
2021/12/09 10:37:13;;;;;;;4.85;4.32;;;;;;;;;;5021241;28;20496;-81
2021/12/09 10:39:46;;;;;;;5.13;4.20;;;;;;;;;;5022005;28;20460;-82
2021/12/09 10:42:15;;;;;;;3.13;2.78;;;;;;;;;;5014866;28;20763;-82
2021/12/09 10:44:50;;;;;;;3.92;3.50;;;;;;;;;;5017111;28;20416;-82
2021/12/09 10:47:24;;;;;;;3.17;2.53;;;;;;;;;;5015359;28;21020;-81
2021/12/09 10:50:06;;;;;;;3.17;2.40;;;;;;;;;;5016322;28;20495;-81
2021/12/09 10:52:42;;;;;;;2.70;2.50;;;;;;;;;;5014037;28;20411;-81
2021/12/09 10:55:18;;;;;;;3.92;3.28;;;;;;;;;;5013281;28;21182;-81
2021/12/09 10:57:52;;;;;;;3.20;2.72;;;;;;;;;;5016244;28;20446;-83
2021/12/09 11:00:45;;;;;;;3.33;2.90;;;;;;;;;;5019302;28;20445;-82
2021/12/09 11:03:18;;;;;;;3.75;3.00;;;;;;;;;;5014774;28;20496;-82
2021/12/09 11:05:52;;;;;;;3.88;3.42;;;;;;;;;;5015725;28;20430;-81
2021/12/09 11:08:29;;;;;;;4.82;4.10;;;;;;;;;;5015046;28;20482;-81
2021/12/09 11:11:11;;;;;;;4.70;4.10;;;;;;;;;;5016272;28;20432;-82
2021/12/09 11:13:43;;;;;;;5.82;4.13;;;;;;;;;;5020023;28;20409;-80
2021/12/09 11:16:11;;;;;;;5.57;4.20;;;;;;;;;;5011785;28;20507;-80
2021/12/09 11:18:42;;;;;;;4.90;4.40;;;;;;;;;;5015043;28;20421;-81
2021/12/09 11:21:15;;;;;;;4.75;4.10;;;;;;;;;;5011292;28;21177;-80
2021/12/09 11:23:46;;;;;;;5.13;4.63;;;;;;;;;;5007772;28;20796;-81
2021/12/09 11:26:38;;;;;;;5.83;5.23;;;;;;;;;;5009485;28;20686;-80
2021/12/09 11:29:09;;;;;;;7.60;5.10;;;;;;;;;;5013976;28;20450;-82
2021/12/09 11:31:43;;;;;;;5.45;4.80;;;;;;;;;;5015732;28;20428;-80
2021/12/09 11:34:14;;;;;;;5.68;4.60;;;;;;;;;;5014544;28;20542;-80
2021/12/09 11:36:57;;;;;;;6.50;5.10;;;;;;;;;;5012678;28;20413;-81
2021/12/09 11:39:35;;;;;;;6.03;5.07;;;;;;;;;;5009816;28;20479;-80
2021/12/09 11:42:17;;;;;;;5.20;3.80;;;;;;;;;;5012114;28;20419;-81
2021/12/09 11:44:44;;;;;;;8.55;5.97;;;;;;;;;;5015624;28;20415;-81
2021/12/09 11:47:12;;;;;;;7.20;6.30;;;;;;;;;;5011491;28;20448;-81
2021/12/09 11:49:39;;;;;;;6.95;6.00;;;;;;;;;;5011990;28;20461;-81
2021/12/09 11:52:08;;;;;;;7.78;5.90;;;;;;;;;;5012724;28;20414;-80
2021/12/09 11:54:35;;;;;;;7.90;6.10;;;;;;;;;;5013435;28;20403;-80
2021/12/09 11:57:15;;;;;;;11.80;10.80;;;;;;;;;;5009905;28;21315;-80
2021/12/09 12:12:33;;;;;;;5.10;4.60;;;;;;;;;;5011792;28;20404;-80
2021/12/09 12:15:34;;;;;;;5.68;5.10;;;;;;;;;;5013191;28;20410;-79
2021/12/09 12:18:21;;;;;;;6.93;5.40;;;;;;;;;;5010106;28;20425;-79
2021/12/09 12:20:57;;;;;;;5.88;5.13;;;;;;;;;;5014408;28;20952;-80
2021/12/09 12:23:37;;;;;;;5.97;5.38;;;;;;;;;;5012811;28;20472;-79
2021/12/09 12:26:38;;;;;;;5.13;3.85;;;;;;;;;;5010201;28;20389;-80
2021/12/09 12:29:29;;;;;;;3.90;3.50;;;;;;;;;;5015498;28;21262;-80
2021/12/09 12:32:19;;;;;;;3.20;2.90;;;;;;;;;;5015573;28;20476;-80
2021/12/09 12:35:10;;;;;;;2.38;1.98;;;;;;;;;;5015090;28;20426;-79
2021/12/09 12:40:31;;;;;;;2.20;2.00;;;;;;;;;;5015929;28;20403;-80
2021/12/09 12:43:04;;;;;;;2.30;2.05;;;;;;;;;;5017842;28;20410;-80
2021/12/09 12:45:50;;;;;;;2.55;2.13;;;;;;;;;;5017334;28;20973;-81
2021/12/09 12:51:27;;;;;;;2.72;2.20;;;;;;;;;;5014970;28;20954;-81
2021/12/09 12:53:56;;;;;;;2.88;2.28;;;;;;;;;;5016352;28;20418;-80
2021/12/09 12:56:26;;;;;;;1.95;1.85;;;;;;;;;;5017582;28;20412;-79
2021/12/09 12:59:21;;;;;;;4.22;2.80;;;;;;;;;;5017393;28;20646;-80
2021/12/09 13:02:24;;;;;;;2.90;2.53;;;;;;;;;;5023286;28;20432;-80
2021/12/09 13:05:01;;;;;;;3.03;2.60;;;;;;;;;;5021123;28;20765;-81
2021/12/09 13:07:39;;;;;;;2.90;2.60;;;;;;;;;;5024958;28;20424;-80
2021/12/09 13:10:27;;;;;;;2.60;2.40;;;;;;;;;;5023541;28;20499;-81
2021/12/09 13:13:13;;;;;;;4.10;3.03;;;;;;;;;;5023652;28;20409;-79
2021/12/09 13:16:10;;;;;;;4.70;3.15;;;;;;;;;;5019413;28;20422;-80
2021/12/09 13:19:01;;;;;;;3.50;3.20;;;;;;;;;;5017390;28;20423;-81
2021/12/09 13:21:40;;;;;;;3.90;3.50;;;;;;;;;;5017535;28;20407;-80
2021/12/09 13:24:31;;;;;;;3.95;3.45;;;;;;;;;;5015340;28;20403;-81
2021/12/09 13:33:06;;;;;;;3.63;3.33;;;;;;;;;;5020314;28;20421;-79
2021/12/09 13:35:53;;;;;;;3.70;3.40;;;;;;;;;;5023978;28;20850;-79
2021/12/09 13:46:57;;;;;;;4.07;3.73;;;;;;;;;;5023895;28;20444;-83
2021/12/09 13:49:40;;;;;;;3.80;3.50;;;;;;;;;;5022379;28;20488;-82
2021/12/09 13:54:55;;;;;;;4.60;3.80;;;;;;;;;;5021841;28;20412;-81
2021/12/09 13:57:35;;;;;;;3.80;3.50;;;;;;;;;;5022652;28;20408;-81
2021/12/09 14:00:09;;;;;;;4.20;3.80;;;;;;;;;;5020891;28;20421;-81
2021/12/09 14:02:36;;;;;;;4.50;4.10;;;;;;;;;;5022430;28;20397;-80
2021/12/09 14:05:06;;;;;;;5.38;4.60;;;;;;;;;;5021304;28;20405;-82
2021/12/09 14:07:40;;;;;;;6.82;5.03;;;;;;;;;;5022312;28;20405;-81
2021/12/09 14:10:12;;;;;;;5.68;5.18;;;;;;;;;;5020503;28;20510;-80
2021/12/09 14:12:45;;;;;;;6.30;5.70;;;;;;;;;;5021570;28;20434;-81
2021/12/09 14:15:17;;;;;;;6.18;5.57;;;;;;;;;;5016824;28;20830;-81
2021/12/09 14:17:45;;;;;;;6.40;5.80;;;;;;;;;;5022596;28;20405;-82
2021/12/09 14:20:21;;;;;;;6.03;5.40;;;;;;;;;;5020357;28;20438;-81
2021/12/09 14:22:50;;;;;;;5.65;5.13;;;;;;;;;;5022765;28;20405;-81
2021/12/09 14:25:24;;;;;;;6.43;4.90;;;;;;;;;;5020708;28;20417;-81
2021/12/09 14:27:53;;;;;;;5.90;5.10;;;;;;;;;;5020673;28;20484;-81
2021/12/09 14:30:21;;;;;;;7.10;5.15;;;;;;;;;;5022528;28;20397;-80
2021/12/09 14:32:51;;;;;;;6.80;5.87;;;;;;;;;;5021717;28;20553;-81
2021/12/09 14:35:25;;;;;;;7.70;6.13;;;;;;;;;;5020972;28;20406;-80
2021/12/09 14:37:52;;;;;;;8.73;6.47;;;;;;;;;;5021476;28;20409;-80
2021/12/09 14:40:23;;;;;;;8.75;6.90;;;;;;;;;;5020503;28;20444;-79
2021/12/09 14:42:54;;;;;;;7.53;6.67;;;;;;;;;;5022148;28;20409;-80
2021/12/09 14:45:22;;;;;;;8.60;7.30;;;;;;;;;;5022643;28;20462;-80
2021/12/09 14:47:57;;;;;;;13.77;11.30;;;;;;;;;;5022657;28;20495;-79
2021/12/09 14:50:34;;;;;;;11.10;9.20;;;;;;;;;;5021508;28;20451;-79
2021/12/09 14:53:01;;;;;;;6.93;6.32;;;;;;;;;;5021795;28;20405;-82
2021/12/09 14:55:29;;;;;;;7.55;6.85;;;;;;;;;;5021835;28;20890;-81
2021/12/09 14:58:03;;;;;;;7.20;6.40;;;;;;;;;;5023430;28;20417;-82
2021/12/09 15:00:38;;;;;;;15.52;11.82;;;;;;;;;;5022652;28;20889;-81
2021/12/09 15:03:08;;;;;;;28.63;21.03;;;;;;;;;;5021455;28;20485;-82
2021/12/09 15:05:53;;;;;;;31.00;22.63;;;;;;;;;;5022311;28;20410;-81
2021/12/09 15:08:22;;;;;;;31.07;21.73;;;;;;;;;;5020928;28;20457;-80
2021/12/09 15:10:52;;;;;;;29.65;19.50;;;;;;;;;;5023454;28;20472;-81
2021/12/09 15:13:21;;;;;;;55.90;32.42;;;;;;;;;;5019339;28;20905;-81
2021/12/09 15:15:48;;;;;;;44.35;27.00;;;;;;;;;;5020104;28;20459;-81
2021/12/09 15:18:15;;;;;;;58.50;33.47;;;;;;;;;;5020706;28;20788;-82
2021/12/09 15:20:49;;;;;;;55.67;31.40;;;;;;;;;;5020528;28;20475;-85
2021/12/09 15:23:31;;;;;;;34.75;21.60;;;;;;;;;;5020201;28;20405;-83
2021/12/09 15:25:58;;;;;;;38.97;24.57;;;;;;;;;;5015377;28;20389;-82